Pagrindinis puslapis
METAR-TAF:

METAR-TAF

Oro uostai :

Vojens, Danija

platuma: 55-14N, ilguma: 009-16E, Aukštis: 43 m

Dabartinis oras

Ataskaita buvo paskelbta 32 minutes, ne 10:50 UTC
Vėjas 14 kt iš Pietų/Pietvakarių, svyruoja nuo Pietų ir Vakarų/Pietvakarių
Temperatūra 22°C
Drėgmė 46%
Slėgis 1024 hPa
Matomumas 10 km arba daugiau
nėra debesų žemiau 1500 m ir nėra kamuolinių lietaus debesų

METAR: EKSP 221050Z 20014KT 180V240 CAVOK 22/10 Q1024 NOSIG RMK SCT230

Laikas: 13:22 (11:22 UTC)

Prognozė

Ataskaita buvo paskelbta 3 valandos ir 8 minutes, ne 08:14 UTC
Prognozė galioja nuo 22 metu 09 UTC su 23 metu 09 UTC
Vėjas 8 kt iš Pietų
Matomumas 10 km arba daugiau
Išsisklaidę debesys ne aukštis 3000 ft
Laikinai
nuo 22 metu 10 UTC su 22 metu 16 UTC
Vėjas 12 kt iš Pietų/Pietvakarių su gūsio iki 25 kt
Laikinai
nuo 23 metu 00 UTC su 23 metu 06 UTC
Matomumas: 5000 m
rūkana

TAF: EKSP 220814Z 2209/2309 19008KT 9999 SCT030 TEMPO 2210/2216 21012G25KT TEMPO 2300/2306 5000 BR

Orai ataskaitas ir orų prognozės (METAR, TAF).

turimą stotys yra geltonos ir raudonos taškus žemėlapyje.

Perkelti pele per norėdami pamatyti stoties vardą.

Tada spustelėkite, norėdami matyti oro stebėjimo ir prognozės.

Norėdami pakeisti žemėlapį: spustelėkite ant žalios mygtukų su juodo kryžiaus žemyn,; žalią mygtuką su brūkšneliu, jei norite nutolinti; arba žalių rodyklių gretimoms žemėlapius.


METAR-TAF: